Time;durP1;ratioP1;P1;durP2;ratioP2;P2;SDS_P1;SDS_P2;PMS_P1;PMS_P2;Temp;Humidity;BMP_temperature;BMP_pressure;BME280_temperature;BME280_humidity;BME280_pressure;Samples;Min_cycle;Max_cycle;Signal;HPM_P1;HPM_P2
2021/06/19 00:00:59;;;;;;;;;;;;;;;-142.75;68.31;75979.78;5035073;28;19919;-81
2021/06/19 00:03:24;;;;;;;;;;;;;;;-142.75;68.25;75975.84;5052756;28;20476;-82
2021/06/19 00:05:49;;;;;;;;;;;;;;;-142.75;68.29;75975.84;5036217;28;19912;-83
2021/06/19 00:08:14;;;;;;;;;;;;;;;-142.75;68.32;75979.78;5053046;28;19913;-81
2021/06/19 00:10:40;;;;;;;;;;;;;;;-142.75;68.36;75983.72;5056074;28;19931;-82
2021/06/19 00:13:05;;;;;;;;;;;;;;;-142.75;68.46;75983.72;5056256;28;19912;-84
2021/06/19 00:15:30;;;;;;;;;;;;;;;-142.75;68.36;75987.66;5039114;28;19916;-80
2021/06/19 00:17:55;;;;;;;;;;;;;;;-142.75;67.50;75985.69;5057012;28;19921;-82
2021/06/19 00:20:22;;;;;;;;;;;;;;;-142.75;67.27;75985.69;5039067;28;19913;-81
2021/06/19 00:22:47;;;;;;;;;;;;;;;-142.75;66.56;75987.66;5058095;28;19912;-80
2021/06/19 00:25:14;;;;;;;;;;;;;;;-142.75;66.39;75987.66;5057738;28;19912;-79
2021/06/19 00:27:39;;;;;;;;;;;;;;;-142.75;66.32;75993.56;5038903;28;19936;-78
2021/06/19 00:30:05;;;;;;;;;;;;;;;-142.75;66.18;75997.50;5056380;28;20373;-79
2021/06/19 00:32:31;;;;;;;;;;;;;;;-142.75;66.69;76003.41;5055881;28;19913;-80
2021/06/19 00:34:56;;;;;;;;;;;;;;;-142.75;66.36;76015.22;5056884;28;19920;-78
2021/06/19 00:37:21;;;;;;;;;;;;;;;-142.75;66.58;76025.06;5056964;28;20294;-80
2021/06/19 00:39:46;;;;;;;;;;;;;;;-142.75;66.56;76032.94;5056032;28;19935;-81
2021/06/19 00:42:16;;;;;;;;;;;;;;;-142.75;66.50;76034.91;5039835;28;19936;-80
2021/06/19 00:44:41;;;;;;;;;;;;;;;-142.75;66.90;76042.78;5037473;28;19920;-80
2021/06/19 00:47:07;;;;;;;;;;;;;;;-142.75;66.63;76040.81;5056230;28;19912;-79
2021/06/19 00:49:32;;;;;;;;;;;;;;;-142.75;66.79;76038.84;5056401;28;19913;-80
2021/06/19 00:51:57;;;;;;;;;;;;;;;-142.75;66.57;76042.78;5037560;28;19962;-81
2021/06/19 00:54:22;;;;;;;;;;;;;;;-142.75;66.79;76044.75;5056978;28;19917;-79
2021/06/19 00:56:48;;;;;;;;;;;;;;;-142.75;67.03;76056.56;5056961;28;19913;-78
2021/06/19 00:59:13;;;;;;;;;;;;;;;-142.75;66.83;76052.63;5057124;28;19959;-79
2021/06/19 01:01:39;;;;;;;;;;;;;;;-142.75;66.82;76062.47;5056346;28;19965;-80
2021/06/19 01:04:04;;;;;;;;;;;;;;;-142.75;66.84;76070.34;5038193;28;20022;-80
2021/06/19 01:06:31;;;;;;;;;;;;;;;-142.75;66.97;76062.47;5057109;28;19913;-80
2021/06/19 01:08:56;;;;;;;;;;;;;;;-142.75;66.75;76074.25;5056909;28;20289;-79
2021/06/19 01:11:22;;;;;;;;;;;;;;;-142.75;66.54;76082.13;5038072;28;20010;-79
2021/06/19 01:13:48;;;;;;;;;;;;;;;-142.75;66.98;76082.13;5056569;28;20003;-79
2021/06/19 01:16:14;;;;;;;;;;;;;;;-142.75;67.25;76082.13;5056177;28;19913;-80
2021/06/19 01:18:39;;;;;;;;;;;;;;;-142.75;66.97;76078.19;5038085;28;19983;-78
2021/06/19 01:21:11;;;;;;;;;;;;;;;-142.75;66.90;76086.06;5054179;28;19912;-79
2021/06/19 01:23:36;;;;;;;;;;;;;;;-142.75;66.89;76088.03;5055860;28;19935;-80
2021/06/19 01:26:01;;;;;;;;;;;;;;;-142.75;66.92;76082.13;5037379;28;20342;-80
2021/06/19 01:28:26;;;;;;;;;;;;;;;-142.75;67.12;76086.06;5055673;28;19920;-80
2021/06/19 01:30:51;;;;;;;;;;;;;;;-142.75;66.65;76090.00;5055596;28;19932;-79
2021/06/19 01:33:17;;;;;;;;;;;;;;;-142.75;66.87;76095.91;5037477;28;19967;-78
2021/06/19 01:35:42;;;;;;;;;;;;;;;-142.75;67.14;76097.88;5037685;28;19928;-77
2021/06/19 01:38:07;;;;;;;;;;;;;;;-142.75;67.16;76111.66;5056044;28;19916;-79
2021/06/19 01:40:32;;;;;;;;;;;;;;;-142.75;67.05;76113.63;5038073;28;19913;-77
2021/06/19 01:42:58;;;;;;;;;;;;;;;-142.75;67.17;76115.59;5055242;28;19913;-79
2021/06/19 01:45:25;;;;;;;;;;;;;;;-142.75;66.94;76119.53;5036910;28;19928;-78
2021/06/19 01:47:50;;;;;;;;;;;;;;;-142.75;67.41;76129.38;5037732;28;19944;-80
2021/06/19 01:50:17;;;;;;;;;;;;;;;-142.75;67.01;76137.25;5055988;28;19932;-79
2021/06/19 01:52:42;;;;;;;;;;;;;;;-142.75;67.17;76137.25;5054950;28;19916;-80
2021/06/19 01:55:08;;;;;;;;;;;;;;;-142.75;67.10;76147.09;5055832;28;20305;-81
2021/06/19 01:57:36;;;;;;;;;;;;;;;-142.75;66.81;76137.25;5055147;28;19920;-79
2021/06/19 02:00:05;;;;;;;;;;;;;;;-142.75;66.63;76141.19;5037205;28;19956;-78
2021/06/19 02:02:30;;;;;;;;;;;;;;;-142.75;66.91;76141.19;5056358;28;19913;-80
2021/06/19 02:04:55;;;;;;;;;;;;;;;-142.75;67.59;76149.06;5054875;28;19919;-79
2021/06/19 02:07:20;;;;;;;;;;;;;;;-142.75;67.85;76156.94;5056478;28;20377;-79
2021/06/19 02:09:45;;;;;;;;;;;;;;;-142.75;68.34;76166.78;5054354;28;19916;-78
2021/06/19 02:12:11;;;;;;;;;;;;;;;-142.75;68.80;76178.59;5054286;28;19923;-80
2021/06/19 02:14:36;;;;;;;;;;;;;;;-142.75;69.13;76178.59;5054408;28;20348;-77
2021/06/19 02:17:02;;;;;;;;;;;;;;;-142.75;69.17;76186.47;5055150;28;19919;-79
2021/06/19 02:19:27;;;;;;;;;;;;;;;-142.75;69.00;76194.34;5054608;28;20487;-79
2021/06/19 02:21:52;;;;;;;;;;;;;;;-142.75;68.86;76200.25;5053420;28;19913;-80
2021/06/19 02:24:17;;;;;;;;;;;;;;;-142.75;68.82;76206.13;5053895;28;20011;-80
2021/06/19 02:26:42;;;;;;;;;;;;;;;-142.75;69.01;76208.09;5053635;28;19913;-79
2021/06/19 02:29:07;;;;;;;;;;;;;;;-142.75;69.44;76208.09;5035391;28;19920;-79
2021/06/19 02:31:33;;;;;;;;;;;;;;;-142.75;69.43;76212.03;5052493;28;21347;-78
2021/06/19 02:33:58;;;;;;;;;;;;;;;-142.75;69.35;76221.88;5053976;28;19913;-78
2021/06/19 02:36:23;;;;;;;;;;;;;;;-142.75;69.40;76229.75;5036053;28;19913;-80
2021/06/19 02:38:49;;;;;;;;;;;;;;;-142.75;69.39;76231.72;5053283;28;19912;-80
2021/06/19 02:41:14;;;;;;;;;;;;;;;-142.75;69.07;76231.72;5053421;28;19999;-79
2021/06/19 02:43:39;;;;;;;;;;;;;;;-142.75;68.79;76229.75;5035715;28;19952;-79
2021/06/19 02:46:04;;;;;;;;;;;;;;;-142.75;68.85;76233.69;5035219;28;20003;-80
2021/06/19 02:48:30;;;;;;;;;;;;;;;-142.75;68.52;76231.72;5053463;28;20338;-78
2021/06/19 02:50:55;;;;;;;;;;;;;;;-142.75;68.76;76239.59;5052945;28;19991;-81
2021/06/19 02:53:20;;;;;;;;;;;;;;;-142.75;68.73;76249.44;5053801;28;19912;-78
2021/06/19 02:55:46;;;;;;;;;;;;;;;-142.75;68.64;76255.34;5053116;28;19938;-79
2021/06/19 02:58:13;;;;;;;;;;;;;;;-142.75;68.89;76261.25;5035665;28;19995;-79
2021/06/19 03:00:38;;;;;;;;;;;;;;;-142.75;68.83;76255.34;5052722;28;19963;-79
2021/06/19 03:03:04;;;;;;;;;;;;;;;-142.75;68.91;76267.16;5036140;28;20309;-78
2021/06/19 03:05:30;;;;;;;;;;;;;;;-142.75;68.67;76271.09;5053038;28;19913;-80
2021/06/19 03:07:56;;;;;;;;;;;;;;;-142.75;68.55;76271.09;5053212;28;20341;-79
2021/06/19 03:10:25;;;;;;;;;;;;;;;-142.75;68.65;76271.09;5051815;28;19928;-78
2021/06/19 03:12:50;;;;;;;;;;;;;;;-142.75;69.14;76278.97;5034514;28;19912;-79
2021/06/19 03:15:16;;;;;;;;;;;;;;;-142.75;68.76;76277.00;5053111;28;19967;-79
2021/06/19 03:17:41;;;;;;;;;;;;;;;-142.75;68.55;76278.97;5052903;28;19947;-79
2021/06/19 03:20:08;;;;;;;;;;;;;;;-142.75;68.43;76288.81;5035050;28;19917;-79
2021/06/19 03:22:47;;;;;;;;;;;;;;;-142.75;68.52;76290.78;5052492;28;20005;-79
2021/06/19 03:25:16;;;;;;;;;;;;;;;-142.75;68.49;76302.59;5034946;28;19917;-80
2021/06/19 03:27:42;;;;;;;;;;;;;;;-142.75;68.74;76310.47;5033903;28;19999;-79
2021/06/19 03:30:07;;;;;;;;;;;;;;;-142.75;68.87;76330.16;5034677;28;20003;-80
2021/06/19 03:32:33;;;;;;;;;;;;;;;-142.75;68.87;76330.16;5052328;28;19943;-78
2021/06/19 03:34:58;;;;;;;;;;;;;;;-142.75;69.25;76318.34;5052500;28;19916;-79
2021/06/19 03:37:23;;;;;;;;;;;;;;;-142.75;69.10;76324.25;5051929;28;20333;-78
2021/06/19 03:39:48;;;;;;;;;;;;;;;-142.75;68.83;76330.16;5052063;28;19916;-78
2021/06/19 03:42:13;;;;;;;;;;;;;;;-142.75;68.78;76330.16;5034535;28;19923;-79
2021/06/19 03:44:38;;;;;;;;;;;;;;;-142.75;68.79;76341.97;5051603;28;19917;-77
2021/06/19 03:47:04;;;;;;;;;;;;;;;-142.75;68.89;76343.94;5034968;28;19913;-77
2021/06/19 03:49:29;;;;;;;;;;;;;;;-142.75;68.74;76343.94;5052073;28;19913;-80
2021/06/19 03:51:54;;;;;;;;;;;;;;;-142.75;69.19;76340.00;5051899;28;20359;-77
2021/06/19 03:54:20;;;;;;;;;;;;;;;-142.75;68.81;76338.03;5052231;28;19920;-78
2021/06/19 03:56:45;;;;;;;;;;;;;;;-142.75;68.12;76334.09;5034915;28;19913;-78
2021/06/19 03:59:10;;;;;;;;;;;;;;;-142.75;67.75;76340.00;5034308;28;20310;-79
2021/06/19 04:01:35;;;;;;;;;;;;;;;-142.75;68.09;76334.09;5052010;28;20042;-81
2021/06/19 04:04:01;;;;;;;;;;;;;;;-142.75;67.45;76332.13;5034309;28;19916;-78
2021/06/19 04:06:26;;;;;;;;;;;;;;;-142.75;67.87;76345.91;5051944;28;19913;-77
2021/06/19 04:08:51;;;;;;;;;;;;;;;-142.75;67.47;76349.81;5052116;28;19978;-79
2021/06/19 04:11:17;;;;;;;;;;;;;;;-142.75;68.18;76357.69;5051708;28;20317;-77
2021/06/19 04:13:42;;;;;;;;;;;;;;;-142.75;67.67;76353.78;5034665;28;19959;-78
2021/06/19 04:16:09;;;;;;;;;;;;;;;-142.75;67.98;76363.59;5052226;28;19920;-78
2021/06/19 04:18:35;;;;;;;;;;;;;;;-142.75;67.82;76361.63;5034347;28;19942;-81
2021/06/19 04:21:00;;;;;;;;;;;;;;;-142.75;67.88;76369.50;5051532;28;20370;-79
2021/06/19 04:23:25;;;;;;;;;;;;;;;-142.75;68.26;76369.50;5033888;28;19913;-79
2021/06/19 04:25:50;;;;;;;;;;;;;;;-142.75;67.78;76371.47;5051896;28;19912;-80
2021/06/19 04:28:15;;;;;;;;;;;;;;;-142.75;67.93;76367.53;5034967;28;19951;-79
2021/06/19 04:30:41;;;;;;;;;;;;;;;-142.75;68.05;76369.50;5051890;28;19920;-79
2021/06/19 04:35:33;;;;;;;;;;;;;;;-142.75;67.85;76371.47;5047183;28;19921;-82
2021/06/19 04:37:59;;;;;;;;;;;;;;;-142.75;67.97;76377.38;5031657;28;20285;-80
2021/06/19 04:42:57;;;;;;;;;;;;;;;-142.75;67.53;76375.41;5051091;28;20034;-82
2021/06/19 04:45:23;;;;;;;;;;;;;;;-142.75;67.54;76385.25;5032639;28;19947;-81
2021/06/19 04:47:48;;;;;;;;;;;;;;;-142.75;67.87;76381.31;5051062;28;19962;-80
2021/06/19 04:50:14;;;;;;;;;;;;;;;-142.75;67.67;76379.34;5049984;28;19932;-78
2021/06/19 04:52:41;;;;;;;;;;;;;;;-142.75;67.66;76379.34;5049759;28;19975;-81
2021/06/19 04:55:08;;;;;;;;;;;;;;;-142.75;68.09;76377.38;5051818;28;19960;-79
2021/06/19 04:57:34;;;;;;;;;;;;;;;-142.75;67.56;76389.19;5037841;28;20392;-78
2021/06/19 04:59:59;;;;;;;;;;;;;;;-142.75;67.96;76393.13;5037169;28;19952;-78
2021/06/19 05:02:25;;;;;;;;;;;;;;;-142.75;67.65;76401.00;5055289;28;20011;-79
2021/06/19 05:04:50;;;;;;;;;;;;;;;-142.75;67.77;76401.00;5036974;28;20396;-80
2021/06/19 05:07:15;;;;;;;;;;;;;;;-142.75;67.92;76408.88;5053675;28;19966;-80
2021/06/19 05:09:40;;;;;;;;;;;;;;;-142.75;68.32;76414.78;5036967;28;19999;-80
2021/06/19 05:12:06;;;;;;;;;;;;;;;-142.75;68.21;76414.78;5054025;28;19913;-79
2021/06/19 05:14:31;;;;;;;;;;;;;;;-142.75;67.78;76426.59;5035616;28;20382;-80
2021/06/19 05:16:56;;;;;;;;;;;;;;;-142.75;67.43;76440.38;5036607;28;20382;-81
2021/06/19 05:19:21;;;;;;;;;;;;;;;-142.75;67.96;76446.28;5036397;28;19912;-79
2021/06/19 05:21:47;;;;;;;;;;;;;;;-142.75;68.12;76448.25;5036251;28;19921;-80
2021/06/19 05:24:12;;;;;;;;;;;;;;;-142.75;68.09;76450.22;5036614;28;19913;-79
2021/06/19 05:26:40;;;;;;;;;;;;;;;-142.75;68.26;76448.25;5036493;28;19916;-80
2021/06/19 05:29:05;;;;;;;;;;;;;;;-142.75;68.57;76452.19;5054144;28;19918;-79
2021/06/19 05:31:31;;;;;;;;;;;;;;;-142.75;69.00;76452.19;5036018;28;20039;-80
2021/06/19 05:33:56;;;;;;;;;;;;;;;-142.75;68.94;76450.22;5035693;28;19999;-81
2021/06/19 05:36:21;;;;;;;;;;;;;;;-142.75;69.26;76454.16;5035547;28;20267;-79
2021/06/19 05:38:46;;;;;;;;;;;;;;;-142.75;68.73;76458.09;5036080;28;19920;-79
2021/06/19 05:41:12;;;;;;;;;;;;;;;-142.75;68.64;76454.16;5053726;28;20313;-80
2021/06/19 05:43:37;;;;;;;;;;;;;;;-142.75;68.52;76452.19;5053882;28;20259;-80
2021/06/19 05:46:02;;;;;;;;;;;;;;;-142.75;68.51;76450.22;5053885;28;19959;-80
2021/06/19 05:48:27;;;;;;;;;;;;;;;-142.75;68.18;76450.22;5036373;28;19959;-81
2021/06/19 05:50:53;;;;;;;;;;;;;;;-142.75;68.42;76448.25;5035425;28;20484;-80
2021/06/19 05:53:18;;;;;;;;;;;;;;;-142.75;68.01;76440.38;5036009;28;19955;-81
2021/06/19 05:55:43;;;;;;;;;;;;;;;-142.75;68.37;76460.06;5035741;28;19916;-78
2021/06/19 05:58:09;;;;;;;;;;;;;;;-142.75;68.01;76460.06;5035825;28;19913;-80
2021/06/19 06:00:34;;;;;;;;;;;;;;;-142.75;68.88;76464.00;5053144;28;19920;-78
2021/06/19 06:02:59;;;;;;;;;;;;;;;-142.75;69.00;76471.88;5035774;28;19913;-82
2021/06/19 06:05:25;;;;;;;;;;;;;;;-142.75;69.44;76469.91;5053765;28;20401;-80
2021/06/19 06:07:50;;;;;;;;;;;;;;;-142.75;69.60;76469.91;5052674;28;19958;-80
2021/06/19 06:10:16;;;;;;;;;;;;;;;-142.75;68.80;76469.91;5052989;28;19951;-81
2021/06/19 06:12:41;;;;;;;;;;;;;;;-142.75;68.31;76475.81;5035655;28;19920;-82
2021/06/19 06:15:08;;;;;;;;;;;;;;;-142.75;67.08;76487.63;5038248;28;19966;-82
2021/06/19 06:17:33;;;;;;;;;;;;;;;-142.75;66.79;76493.53;5056474;28;20401;-82
2021/06/19 06:19:58;;;;;;;;;;;;;;;-142.75;67.65;76497.47;5039019;28;19913;-81
2021/06/19 06:22:23;;;;;;;;;;;;;;;-142.75;67.11;76505.34;5055707;28;19921;-82
2021/06/19 06:24:49;;;;;;;;;;;;;;;-142.75;67.48;76507.31;5036253;28;19916;-81
2021/06/19 06:27:14;;;;;;;;;;;;;;;-142.75;67.98;76499.44;5057277;28;19952;-81
2021/06/19 06:29:39;;;;;;;;;;;;;;;-142.75;67.35;76499.44;5037436;28;19913;-82
2021/06/19 06:32:04;;;;;;;;;;;;;;;-142.75;67.16;76487.63;5054411;28;20004;-78
2021/06/19 06:34:30;;;;;;;;;;;;;;;-142.75;67.12;76485.66;5054118;28;19912;-80
2021/06/19 06:36:55;;;;;;;;;;;;;;;-142.75;66.36;76483.69;5053685;28;19935;-79
2021/06/19 06:39:21;;;;;;;;;;;;;;;-142.75;66.65;76471.88;5054700;28;19974;-79
2021/06/19 06:41:46;;;;;;;;;;;;;;;-142.75;66.41;76471.88;5054395;28;19923;-81
2021/06/19 06:44:12;;;;;;;;;;;;;;;-142.75;66.06;76464.00;5036169;28;20408;-79
2021/06/19 06:46:37;;;;;;;;;;;;;;;-142.75;66.15;76458.09;5036165;28;19960;-81
2021/06/19 06:49:02;;;;;;;;;;;;;;;-142.75;65.52;76467.94;5036034;28;19913;-81
2021/06/19 06:51:27;;;;;;;;;;;;;;;-142.75;65.74;76469.91;5036198;28;19928;-82
2021/06/19 06:53:53;;;;;;;;;;;;;;;-142.75;65.71;76467.94;5037412;28;20336;-79
2021/06/19 06:56:18;;;;;;;;;;;;;;;-142.75;64.77;76460.06;5054793;28;20430;-79
2021/06/19 06:58:43;;;;;;;;;;;;;;;-142.75;64.47;76442.34;5037118;28;19940;-79
2021/06/19 07:01:08;;;;;;;;;;;;;;;-142.75;63.38;76450.22;5036307;28;19913;-80
2021/06/19 07:03:34;;;;;;;;;;;;;;;-142.75;63.71;76448.25;5036408;28;19936;-79
2021/06/19 07:05:59;;;;;;;;;;;;;;;-142.75;63.33;76456.13;5054402;28;19913;-81
2021/06/19 07:08:24;;;;;;;;;;;;;;;-142.75;62.92;76460.06;5036447;28;19934;-79
2021/06/19 07:10:49;;;;;;;;;;;;;;;-142.75;63.53;76460.06;5036421;28;20355;-80
2021/06/19 07:13:15;;;;;;;;;;;;;;;-142.75;62.20;76465.97;5054392;28;19931;-79
2021/06/19 07:15:42;;;;;;;;;;;;;;;-142.75;62.71;76454.16;5036621;28;19913;-79
2021/06/19 07:18:07;;;;;;;;;;;;;;;-142.75;62.87;76456.13;5054164;28;19921;-80
2021/06/19 07:20:32;;;;;;;;;;;;;;;-142.75;62.83;76465.97;5036314;28;20404;-79
2021/06/19 07:22:58;;;;;;;;;;;;;;;-142.75;63.28;76467.94;5054753;28;20058;-81
2021/06/19 07:25:23;;;;;;;;;;;;;;;-142.75;63.26;76473.84;5055405;28;19914;-79
2021/06/19 07:27:53;;;;;;;;;;;;;;;-142.75;62.94;76479.75;5036634;28;19913;-81
2021/06/19 07:30:19;;;;;;;;;;;;;;;-142.75;62.46;76489.59;5037287;28;19928;-81
2021/06/19 07:32:44;;;;;;;;;;;;;;;-142.75;62.98;76495.50;5036638;28;19917;-81
2021/06/19 07:35:10;;;;;;;;;;;;;;;-142.75;62.66;76509.28;5035827;28;19912;-80
2021/06/19 07:37:35;;;;;;;;;;;;;;;-142.75;62.67;76505.34;5036262;28;19912;-81
2021/06/19 07:40:00;;;;;;;;;;;;;;;-142.75;61.93;76509.28;5036765;28;20278;-80
2021/06/19 07:42:25;;;;;;;;;;;;;;;-142.75;62.15;76511.25;5037387;28;19916;-82
2021/06/19 07:44:51;;;;;;;;;;;;;;;-142.75;62.35;76509.28;5036830;28;20386;-79
2021/06/19 07:47:17;;;;;;;;;;;;;;;-142.75;62.42;76519.13;5036857;28;19963;-81
2021/06/19 07:49:42;;;;;;;;;;;;;;;-142.75;61.83;76523.06;5037156;28;19927;-80
2021/06/19 07:52:08;;;;;;;;;;;;;;;-142.75;62.69;76515.19;5036338;28;19921;-80
2021/06/19 07:54:37;;;;;;;;;;;;;;;-142.75;62.15;76515.19;5036323;28;19955;-81
2021/06/19 07:57:03;;;;;;;;;;;;;;;-142.75;62.24;76519.13;5053678;28;19916;-79
2021/06/19 07:59:28;;;;;;;;;;;;;;;-142.75;62.71;76513.22;5053201;28;19917;-81
2021/06/19 08:01:53;;;;;;;;;;;;;;;-142.75;62.58;76523.06;5034970;28;20023;-82
2021/06/19 08:04:19;;;;;;;;;;;;;;;-142.75;62.07;76538.78;5035457;28;19952;-79
2021/06/19 08:06:44;;;;;;;;;;;;;;;-142.75;62.19;76538.78;5035965;28;19913;-81
2021/06/19 08:09:09;;;;;;;;;;;;;;;-142.75;62.21;76530.91;5035523;28;20011;-81
2021/06/19 08:11:34;;;;;;;;;;;;;;;-142.75;61.62;76532.88;5035159;28;19916;-83
2021/06/19 08:13:59;;;;;;;;;;;;;;;-142.75;61.93;76525.03;5053187;28;19991;-81
2021/06/19 08:16:27;;;;;;;;;;;;;;;-142.75;62.18;76527.00;5053746;28;19912;-83
2021/06/19 08:18:52;;;;;;;;;;;;;;;-142.75;61.69;76532.88;5053313;28;20300;-81
2021/06/19 08:21:17;;;;;;;;;;;;;;;-142.75;61.71;76534.84;5053595;28;19913;-80
2021/06/19 08:23:42;;;;;;;;;;;;;;;-142.75;61.18;76538.78;5035182;28;19924;-82
2021/06/19 08:26:08;;;;;;;;;;;;;;;-142.75;61.04;76527.00;5035349;28;20394;-81
2021/06/19 08:28:35;;;;;;;;;;;;;;;-142.75;61.36;76517.16;5052933;28;19913;-81
2021/06/19 08:31:01;;;;;;;;;;;;;;;-142.75;60.01;76511.25;5037331;28;20133;-79
2021/06/19 08:33:26;;;;;;;;;;;;;;;-142.75;59.80;76515.19;5057821;28;19919;-81
2021/06/19 08:35:51;;;;;;;;;;;;;;;-142.75;60.43;76536.84;5056885;28;20008;-80
2021/06/19 08:38:16;;;;;;;;;;;;;;;-142.75;61.02;76542.72;5057454;28;19943;-81
2021/06/19 08:40:41;;;;;;;;;;;;;;;-142.75;61.18;76548.63;5039182;28;19920;-80
2021/06/19 08:43:07;;;;;;;;;;;;;;;-142.75;61.04;76558.47;5056818;28;20397;-81
2021/06/19 08:45:33;;;;;;;;;;;;;;;-142.75;62.24;76554.53;5039861;28;19912;-82
2021/06/19 08:48:02;;;;;;;;;;;;;;;-142.75;62.32;76550.59;5039175;28;20512;-80
2021/06/19 08:50:27;;;;;;;;;;;;;;;-142.75;62.75;76546.66;5039689;28;19923;-80
2021/06/19 08:52:53;;;;;;;;;;;;;;;-142.75;61.93;76552.56;5037971;28;19913;-81
2021/06/19 08:55:18;;;;;;;;;;;;;;;-142.75;61.21;76564.38;5056712;28;19916;-81
2021/06/19 08:57:44;;;;;;;;;;;;;;;-142.75;61.65;76554.53;5039242;28;19912;-80
2021/06/19 09:00:10;;;;;;;;;;;;;;;-142.75;62.64;76552.56;5056666;28;19920;-80
2021/06/19 09:02:35;;;;;;;;;;;;;;;-142.75;62.18;76546.66;5055869;28;19912;-80
2021/06/19 09:05:04;;;;;;;;;;;;;;;-142.75;62.33;76548.63;5056105;28;20014;-82
2021/06/19 09:07:40;;;;;;;;;;;;;;;-142.75;61.56;76574.22;5056033;28;19913;-82
2021/06/19 09:10:25;;;;;;;;;;;;;;;-142.75;61.41;76568.31;5037205;28;19913;-81
2021/06/19 09:12:57;;;;;;;;;;;;;;;-142.75;62.02;76562.41;5037375;28;19913;-81
2021/06/19 09:15:23;;;;;;;;;;;;;;;-142.75;61.62;76550.59;5037721;28;19947;-81
2021/06/19 09:18:08;;;;;;;;;;;;;;;-142.75;61.74;76538.78;5055674;28;20370;-82
2021/06/19 09:20:54;;;;;;;;;;;;;;;-142.75;61.69;76528.97;5036922;28;19916;-80
2021/06/19 09:23:39;;;;;;;;;;;;;;;-142.75;61.13;76525.03;5041657;28;19912;-83
2021/06/19 09:26:06;;;;;;;;;;;;;;;-142.75;61.90;76511.25;5036853;28;19962;-82
2021/06/19 09:28:32;;;;;;;;;;;;;;;-142.75;61.01;76503.38;5037446;28;19919;-80
2021/06/19 09:30:57;;;;;;;;;;;;;;;-142.75;62.15;76499.44;5054662;28;19916;-80
2021/06/19 09:33:22;;;;;;;;;;;;;;;-142.75;61.27;76507.31;5055294;28;19920;-83
2021/06/19 09:35:47;;;;;;;;;;;;;;;-142.75;61.80;76505.34;5055091;28;19999;-80
2021/06/19 09:38:14;;;;;;;;;;;;;;;-142.75;60.40;76501.41;5035919;28;19913;-82
2021/06/19 09:40:43;;;;;;;;;;;;;;;-142.75;60.34;76507.31;5037032;28;19996;-80
2021/06/19 09:43:14;;;;;;;;;;;;;;;-142.75;59.87;76511.25;5034888;28;19916;-82
2021/06/19 09:45:42;;;;;;;;;;;;;;;-142.75;60.78;76507.31;5036823;28;19935;-82
2021/06/19 09:48:23;;;;;;;;;;;;;;;-142.75;60.26;76523.06;5036890;28;19920;-80
2021/06/19 09:51:07;;;;;;;;;;;;;;;-142.75;60.27;76525.03;5052904;28;19920;-82
2021/06/19 09:53:32;;;;;;;;;;;;;;;-142.75;61.47;76532.88;5035646;28;19920;-81
2021/06/19 09:56:02;;;;;;;;;;;;;;;-142.75;61.09;76532.88;5036471;28;19916;-81
2021/06/19 09:58:44;;;;;;;;;;;;;;;-142.75;61.13;76542.72;5036627;28;20008;-82
2021/06/19 10:01:10;;;;;;;;;;;;;;;-142.75;60.25;76550.59;5054167;28;19979;-81
2021/06/19 10:04:05;;;;;;;;;;;;;;;-142.75;60.38;76550.59;5054643;28;19913;-81
2021/06/19 10:06:31;;;;;;;;;;;;;;;-142.75;61.12;76562.41;5034116;28;19913;-81
2021/06/19 10:08:57;;;;;;;;;;;;;;;-142.75;60.88;76568.31;5035293;28;19926;-82
2021/06/19 10:11:26;;;;;;;;;;;;;;;-142.75;59.93;76566.34;5036317;28;19939;-80
2021/06/19 10:13:52;;;;;;;;;;;;;;;-142.75;60.97;76564.38;5035439;28;19999;-80
2021/06/19 10:16:17;;;;;;;;;;;;;;;-142.75;60.48;76560.44;5035623;28;20361;-80
2021/06/19 10:18:44;;;;;;;;;;;;;;;-142.75;60.84;76550.59;5053468;28;19912;-80
2021/06/19 10:21:10;;;;;;;;;;;;;;;-142.75;60.76;76546.66;5036216;28;19913;-83
2021/06/19 10:23:35;;;;;;;;;;;;;;;-142.75;61.48;76546.66;5054113;28;19913;-83
2021/06/19 10:26:01;;;;;;;;;;;;;;;-142.75;61.15;76530.91;5036471;28;19919;-84
2021/06/19 10:28:28;;;;;;;;;;;;;;;-142.75;62.27;76507.31;5054314;28;19952;-82
2021/06/19 10:30:55;;;;;;;;;;;;;;;-142.75;60.44;76489.59;5035541;28;19917;-83
2021/06/19 10:35:53;;;;;;;;;;;;;;;-142.75;59.88;76458.09;5009683;28;19928;-79
2021/06/19 10:38:19;;;;;;;;;;;;;;;-142.75;60.13;76444.31;5013556;28;19917;-79
2021/06/19 10:40:55;;;;;;;;;;;;;;;-142.75;59.06;76432.50;5013653;28;19913;-78
2021/06/19 10:43:23;;;;;;;;;;;;;;;-142.75;59.05;76450.22;5012883;28;19913;-79
2021/06/19 10:45:51;;;;;;;;;;;;;;;-142.75;58.86;76464.00;5013970;28;20417;-78
2021/06/19 10:48:31;;;;;;;;;;;;;;;-142.75;58.76;76471.88;5029091;28;19913;-78
2021/06/19 10:51:16;;;;;;;;;;;;;;;-142.75;60.48;76487.63;5014254;28;19957;-80
2021/06/19 10:54:00;;;;;;;;;;;;;;;-142.75;59.46;76495.50;5013203;28;19924;-79
2021/06/19 10:57:03;;;;;;;;;;;;;;;-142.75;59.42;76491.56;5013878;28;19913;-79
2021/06/19 10:59:30;;;;;;;;;;;;;;;-142.75;59.72;76475.81;4953035;28;20621;-78
2021/06/19 11:01:56;;;;;;;;;;;;;;;-142.75;59.60;76464.00;4953440;28;19922;-79
2021/06/19 11:04:40;;;;;;;;;;;;;;;-142.75;59.18;76450.22;4981949;28;19960;-78
2021/06/19 11:07:06;;;;;;;;;;;;;;;-142.75;59.44;76448.25;4993807;28;19918;-79
2021/06/19 11:09:38;;;;;;;;;;;;;;;-142.75;59.25;76420.69;4994071;28;19920;-78
2021/06/19 11:12:04;;;;;;;;;;;;;;;-142.75;59.21;76395.09;4993431;28;19918;-78
2021/06/19 11:14:38;;;;;;;;;;;;;;;-142.75;58.37;76395.09;4993601;28;19976;-78
2021/06/19 11:17:04;;;;;;;;;;;;;;;-142.75;57.31;76377.38;5028475;28;19913;-78
2021/06/19 11:19:33;;;;;;;;;;;;;;;-142.75;58.08;76377.38;5028851;28;20306;-79
2021/06/19 11:22:17;;;;;;;;;;;;;;;-142.75;58.35;76393.13;5028099;28;19988;-78
2021/06/19 11:25:02;;;;;;;;;;;;;;;-142.75;56.23;76385.25;5013981;28;19914;-79
2021/06/19 11:27:46;;;;;;;;;;;;;;;-142.75;57.61;76399.03;5003276;28;19917;-78
2021/06/19 11:30:31;;;;;;;;;;;;;;;-142.75;58.40;76395.09;5012360;28;19914;-78
2021/06/19 11:33:17;;;;;;;;;;;;;;;-142.75;57.81;76399.03;5008913;28;20355;-79
2021/06/19 11:35:43;;;;;;;;;;;;;;;-142.75;58.15;76389.19;5027835;28;19952;-78
2021/06/19 11:38:09;;;;;;;;;;;;;;;-142.75;57.50;76401.00;5014614;28;19913;-80
2021/06/19 11:40:36;;;;;;;;;;;;;;;-142.75;58.54;76395.09;5012789;28;20438;-78
2021/06/19 11:43:02;;;;;;;;;;;;;;;-142.75;56.96;76393.13;5029036;28;20383;-78
2021/06/19 11:45:27;;;;;;;;;;;;;;;-142.75;57.44;76401.00;5028328;28;19923;-78
2021/06/19 11:47:59;;;;;;;;;;;;;;;-142.75;58.33;76397.06;5028014;28;19913;-78
2021/06/19 11:50:28;;;;;;;;;;;;;;;-142.75;58.73;76393.13;4993072;28;19967;-79
2021/06/19 11:52:53;;;;;;;;;;;;;;;-142.75;58.19;76385.25;5012574;28;19914;-79
2021/06/19 11:55:20;;;;;;;;;;;;;;;-142.75;58.59;76363.59;5013370;28;20345;-80
2021/06/19 11:57:55;;;;;;;;;;;;;;;-142.75;57.74;76367.53;5013437;28;19918;-79
2021/06/19 12:00:21;;;;;;;;;;;;;;;-142.75;58.00;76367.53;5012854;28;19932;-80
2021/06/19 12:02:50;;;;;;;;;;;;;;;-142.75;57.97;76365.56;5027870;28;19918;-80
2021/06/19 12:05:16;;;;;;;;;;;;;;;-142.75;58.73;76347.84;5014123;28;19968;-78
2021/06/19 12:07:43;;;;;;;;;;;;;;;-142.75;56.92;76326.22;5016850;28;20448;-79
2021/06/19 12:10:28;;;;;;;;;;;;;;;-142.75;57.16;76310.47;5016726;28;19940;-79
2021/06/19 12:13:03;;;;;;;;;;;;;;;-142.75;57.30;76306.53;5016585;28;20382;-79
2021/06/19 12:15:29;;;;;;;;;;;;;;;-142.75;55.34;76306.53;5032137;28;19963;-79
2021/06/19 12:17:55;;;;;;;;;;;;;;;-142.75;56.98;76334.09;5016603;28;20295;-79
2021/06/19 12:20:21;;;;;;;;;;;;;;;-142.75;56.17;76359.66;5016601;28;20417;-78
2021/06/19 12:22:46;;;;;;;;;;;;;;;-142.75;57.09;76369.50;5032087;28;19917;-79
2021/06/19 12:25:11;;;;;;;;;;;;;;;-142.75;56.59;76361.63;5016733;28;19914;-79
2021/06/19 12:27:36;;;;;;;;;;;;;;;-142.75;57.92;76353.78;5016495;28;19913;-79
2021/06/19 12:30:02;;;;;;;;;;;;;;;-142.75;57.13;76351.81;5030979;28;19917;-79
2021/06/19 12:32:31;;;;;;;;;;;;;;;-142.75;58.07;76326.22;5031778;28;19925;-78
2021/06/19 12:35:04;;;;;;;;;;;;;;;-142.75;57.36;76310.47;5016500;28;19913;-80